21°C Temp
14°C Dewpoint
% Humidity
Temperature
8 KM/H
5 MPH
4 KTS
20°
North North
East

Wind Speed
Despejado
Pressure 1023.92 (hPa) - 30.24 (in)
Visibility 6.2 (mi) - 10.0 (km)

Current Conditions
LEAL
Location 70(km)
Metar :LEAL 262130Z 02004KT 350V050 CAVOK 21/14 Q1024 NOSIG
Tue 26th May 23:30 pm

Airport
  Metar Aviation API Data Provided by https://www.checkwx.com/ PHP scripts by weather34.com ©2020